sensor_id;sensor_type;location;lat;lon;timestamp;pressure;altitude;pressure_sealevel;temperature;humidity
48424;BME280;34232;42.502;26.014;2022-08-01T00:02:03;99622.09;;;24.61;60.33
48424;BME280;34232;42.502;26.014;2022-08-01T00:04:29;99607.28;;;24.52;58.19
48424;BME280;34232;42.502;26.014;2022-08-01T00:06:54;99605.78;;;24.56;56.06
48424;BME280;34232;42.502;26.014;2022-08-01T00:09:19;99598.69;;;24.61;54.52
48424;BME280;34232;42.502;26.014;2022-08-01T00:11:44;99598.47;;;24.63;50.55
48424;BME280;34232;42.502;26.014;2022-08-01T00:14:10;99597.41;;;24.64;50.26
48424;BME280;34232;42.502;26.014;2022-08-01T00:16:36;99596.03;;;24.73;50.92
48424;BME280;34232;42.502;26.014;2022-08-01T00:19:01;99598.72;;;24.73;48.71
48424;BME280;34232;42.502;26.014;2022-08-01T00:21:26;99595.22;;;24.84;46.96
48424;BME280;34232;42.502;26.014;2022-08-01T00:23:51;99584.81;;;24.76;49.33
48424;BME280;34232;42.502;26.014;2022-08-01T00:26:17;99597.94;;;24.84;47.81
48424;BME280;34232;42.502;26.014;2022-08-01T00:28:42;99596.19;;;24.90;48.52
48424;BME280;34232;42.502;26.014;2022-08-01T00:31:07;99591.84;;;24.89;45.42
48424;BME280;34232;42.502;26.014;2022-08-01T00:33:33;99589.47;;;24.99;45.52
48424;BME280;34232;42.502;26.014;2022-08-01T00:35:58;99586.88;;;25.04;45.41
48424;BME280;34232;42.502;26.014;2022-08-01T00:38:23;99574.47;;;25.03;44.76
48424;BME280;34232;42.502;26.014;2022-08-01T00:40:48;99577.88;;;25.10;44.34
48424;BME280;34232;42.502;26.014;2022-08-01T00:43:14;99586.44;;;25.19;45.42
48424;BME280;34232;42.502;26.014;2022-08-01T00:45:39;99578.47;;;25.24;44.98
48424;BME280;34232;42.502;26.014;2022-08-01T00:48:05;99573.69;;;25.26;43.94
48424;BME280;34232;42.502;26.014;2022-08-01T00:50:30;99590.31;;;25.34;42.73
48424;BME280;34232;42.502;26.014;2022-08-01T00:52:56;99585.88;;;25.40;42.37
48424;BME280;34232;42.502;26.014;2022-08-01T00:55:22;99573.94;;;25.48;42.04
48424;BME280;34232;42.502;26.014;2022-08-01T00:57:48;99591.16;;;25.47;42.20
48424;BME280;34232;42.502;26.014;2022-08-01T01:00:14;99587.16;;;25.49;43.00
48424;BME280;34232;42.502;26.014;2022-08-01T01:02:39;99584.81;;;25.53;41.95
48424;BME280;34232;42.502;26.014;2022-08-01T01:05:05;99580.22;;;25.53;42.08
48424;BME280;34232;42.502;26.014;2022-08-01T01:12:53;99593.16;;;25.63;41.36
48424;BME280;34232;42.502;26.014;2022-08-01T01:15:26;99590.34;;;25.69;41.68
48424;BME280;34232;42.502;26.014;2022-08-01T01:20:30;99596.44;;;25.76;41.15
48424;BME280;34232;42.502;26.014;2022-08-01T01:30:49;99581.91;;;25.77;40.50
48424;BME280;34232;42.502;26.014;2022-08-01T01:33:15;99573.69;;;25.72;40.95
48424;BME280;34232;42.502;26.014;2022-08-01T01:35:42;99577.44;;;25.71;40.95
48424;BME280;34232;42.502;26.014;2022-08-01T01:38:32;99580.84;;;25.67;40.85
48424;BME280;34232;42.502;26.014;2022-08-01T01:40:55;99575.13;;;25.63;41.35
48424;BME280;34232;42.502;26.014;2022-08-01T01:43:22;99569.56;;;25.58;41.39
48424;BME280;34232;42.502;26.014;2022-08-01T01:45:48;99563.94;;;25.60;41.07
48424;BME280;34232;42.502;26.014;2022-08-01T01:48:15;99566.28;;;25.56;41.34
48424;BME280;34232;42.502;26.014;2022-08-01T01:50:42;99570.50;;;25.52;41.42
48424;BME280;34232;42.502;26.014;2022-08-01T01:53:07;99554.44;;;25.34;41.87
48424;BME280;34232;42.502;26.014;2022-08-01T01:55:35;99568.63;;;25.18;42.06
48424;BME280;34232;42.502;26.014;2022-08-01T01:58:02;99569.09;;;25.15;42.06
48424;BME280;34232;42.502;26.014;2022-08-01T02:00:27;99559.63;;;25.12;42.42
48424;BME280;34232;42.502;26.014;2022-08-01T02:02:54;99562.22;;;24.89;42.58
48424;BME280;34232;42.502;26.014;2022-08-01T02:05:21;99559.53;;;24.77;43.08
48424;BME280;34232;42.502;26.014;2022-08-01T02:07:47;99562.91;;;24.72;43.00
48424;BME280;34232;42.502;26.014;2022-08-01T02:10:14;99570.59;;;24.69;43.24
48424;BME280;34232;42.502;26.014;2022-08-01T02:12:41;99562.53;;;24.69;43.63
48424;BME280;34232;42.502;26.014;2022-08-01T02:15:07;99563.00;;;24.66;44.00
48424;BME280;34232;42.502;26.014;2022-08-01T02:17:34;99567.34;;;24.67;43.99
48424;BME280;34232;42.502;26.014;2022-08-01T02:20:02;99564.00;;;24.53;43.59
48424;BME280;34232;42.502;26.014;2022-08-01T02:22:32;99556.16;;;24.52;43.84
48424;BME280;34232;42.502;26.014;2022-08-01T02:25:10;99566.47;;;24.55;43.81
48424;BME280;34232;42.502;26.014;2022-08-01T02:30:05;99559.25;;;24.37;43.20
48424;BME280;34232;42.502;26.014;2022-08-01T02:32:35;99562.56;;;24.39;43.12
48424;BME280;34232;42.502;26.014;2022-08-01T02:35:02;99553.06;;;24.36;43.36
48424;BME280;34232;42.502;26.014;2022-08-01T02:37:28;99551.56;;;24.40;43.23
48424;BME280;34232;42.502;26.014;2022-08-01T02:39:56;99557.13;;;24.27;43.20
48424;BME280;34232;42.502;26.014;2022-08-01T02:42:22;99554.72;;;24.19;43.04
48424;BME280;34232;42.502;26.014;2022-08-01T02:44:48;99558.69;;;24.17;42.93
48424;BME280;34232;42.502;26.014;2022-08-01T02:47:14;99550.84;;;24.15;42.63
48424;BME280;34232;42.502;26.014;2022-08-01T02:49:43;99545.53;;;24.08;41.48
48424;BME280;34232;42.502;26.014;2022-08-01T02:52:10;99541.66;;;24.04;41.39
48424;BME280;34232;42.502;26.014;2022-08-01T02:54:36;99546.81;;;24.06;41.17
48424;BME280;34232;42.502;26.014;2022-08-01T02:57:03;99543.69;;;24.09;40.98
48424;BME280;34232;42.502;26.014;2022-08-01T02:59:28;99551.75;;;24.09;40.25
48424;BME280;34232;42.502;26.014;2022-08-01T03:01:55;99547.13;;;24.16;39.96
48424;BME280;34232;42.502;26.014;2022-08-01T03:04:21;99554.13;;;24.17;40.42
48424;BME280;34232;42.502;26.014;2022-08-01T03:06:47;99553.25;;;24.23;39.17
48424;BME280;34232;42.502;26.014;2022-08-01T03:09:13;99553.84;;;24.25;38.79
48424;BME280;34232;42.502;26.014;2022-08-01T03:11:39;99566.84;;;24.28;38.70
48424;BME280;34232;42.502;26.014;2022-08-01T03:14:07;99544.41;;;24.34;37.79
48424;BME280;34232;42.502;26.014;2022-08-01T03:16:33;99549.25;;;24.44;37.31
48424;BME280;34232;42.502;26.014;2022-08-01T03:19:00;99546.81;;;24.54;37.11
48424;BME280;34232;42.502;26.014;2022-08-01T03:21:26;99538.78;;;24.66;37.13
48424;BME280;34232;42.502;26.014;2022-08-01T03:23:52;99542.19;;;24.73;36.61
48424;BME280;34232;42.502;26.014;2022-08-01T03:26:22;99543.50;;;24.82;36.55
48424;BME280;34232;42.502;26.014;2022-08-01T03:28:49;99535.66;;;24.92;36.64
48424;BME280;34232;42.502;26.014;2022-08-01T03:31:16;99531.72;;;24.95;36.30
48424;BME280;34232;42.502;26.014;2022-08-01T03:33:42;99538.03;;;25.00;36.13
48424;BME280;34232;42.502;26.014;2022-08-01T03:36:08;99542.69;;;24.93;36.21
48424;BME280;34232;42.502;26.014;2022-08-01T03:38:34;99543.91;;;24.97;35.95
48424;BME280;34232;42.502;26.014;2022-08-01T03:41:05;99550.78;;;24.93;36.43
48424;BME280;34232;42.502;26.014;2022-08-01T03:43:36;99547.84;;;24.83;36.70
48424;BME280;34232;42.502;26.014;2022-08-01T03:46:04;99530.94;;;24.76;36.55
48424;BME280;34232;42.502;26.014;2022-08-01T03:48:33;99544.06;;;24.84;36.90
48424;BME280;34232;42.502;26.014;2022-08-01T03:51:01;99545.25;;;24.88;36.43
48424;BME280;34232;42.502;26.014;2022-08-01T03:53:28;99534.47;;;24.88;37.00
48424;BME280;34232;42.502;26.014;2022-08-01T03:55:55;99535.53;;;24.87;36.10
48424;BME280;34232;42.502;26.014;2022-08-01T03:58:20;99527.75;;;24.97;36.67
48424;BME280;34232;42.502;26.014;2022-08-01T04:00:46;99527.75;;;24.97;36.30
48424;BME280;34232;42.502;26.014;2022-08-01T04:03:12;99524.69;;;25.05;36.86
48424;BME280;34232;42.502;26.014;2022-08-01T04:05:40;99526.69;;;25.10;37.04
48424;BME280;34232;42.502;26.014;2022-08-01T04:08:05;99533.03;;;25.16;36.78
48424;BME280;34232;42.502;26.014;2022-08-01T04:10:31;99530.91;;;25.18;36.67
48424;BME280;34232;42.502;26.014;2022-08-01T04:12:56;99528.78;;;25.20;37.01
48424;BME280;34232;42.502;26.014;2022-08-01T04:15:22;99533.72;;;25.23;36.77
48424;BME280;34232;42.502;26.014;2022-08-01T04:17:47;99527.63;;;25.27;36.94
48424;BME280;34232;42.502;26.014;2022-08-01T04:20:13;99537.38;;;25.28;37.86
48424;BME280;34232;42.502;26.014;2022-08-01T04:22:38;99541.09;;;25.27;37.94
48424;BME280;34232;42.502;26.014;2022-08-01T04:25:04;99540.28;;;25.27;38.17
48424;BME280;34232;42.502;26.014;2022-08-01T04:27:35;99541.09;;;25.27;37.23
48424;BME280;34232;42.502;26.014;2022-08-01T04:30:01;99535.94;;;25.26;36.85
48424;BME280;34232;42.502;26.014;2022-08-01T04:32:27;99545.81;;;25.32;37.06
48424;BME280;34232;42.502;26.014;2022-08-01T04:34:55;99543.66;;;25.34;37.06
48424;BME280;34232;42.502;26.014;2022-08-01T04:37:23;99539.91;;;25.35;36.47
48424;BME280;34232;42.502;26.014;2022-08-01T04:39:52;99537.59;;;25.38;36.98
48424;BME280;34232;42.502;26.014;2022-08-01T04:42:17;99534.78;;;25.45;37.44
48424;BME280;34232;42.502;26.014;2022-08-01T04:44:46;99538.75;;;25.42;37.00
48424;BME280;34232;42.502;26.014;2022-08-01T04:47:11;99533.72;;;25.46;36.41
48424;BME280;34232;42.502;26.014;2022-08-01T04:49:38;99536.03;;;25.54;37.25
48424;BME280;34232;42.502;26.014;2022-08-01T04:52:04;99530.53;;;25.61;36.46
48424;BME280;34232;42.502;26.014;2022-08-01T04:54:31;99528.78;;;25.66;36.89
48424;BME280;34232;42.502;26.014;2022-08-01T04:56:58;99535.00;;;25.67;36.18
48424;BME280;34232;42.502;26.014;2022-08-01T04:59:27;99527.38;;;25.75;36.14
48424;BME280;34232;42.502;26.014;2022-08-01T05:02:08;99528.91;;;25.71;35.21
48424;BME280;34232;42.502;26.014;2022-08-01T05:04:33;99522.09;;;25.81;35.13
48424;BME280;34232;42.502;26.014;2022-08-01T05:06:59;99527.09;;;25.89;35.17
48424;BME280;34232;42.502;26.014;2022-08-01T05:09:25;99527.88;;;26.01;34.91
48424;BME280;34232;42.502;26.014;2022-08-01T05:11:50;99531.38;;;26.13;34.76
48424;BME280;34232;42.502;26.014;2022-08-01T05:14:15;99527.19;;;26.34;34.30
48424;BME280;34232;42.502;26.014;2022-08-01T05:16:40;99527.22;;;26.51;33.66
48424;BME280;34232;42.502;26.014;2022-08-01T05:19:07;99533.47;;;26.68;32.40
48424;BME280;34232;42.502;26.014;2022-08-01T05:21:33;99524.78;;;26.94;32.28
48424;BME280;34232;42.502;26.014;2022-08-01T05:23:58;99529.91;;;27.12;32.08
48424;BME280;34232;42.502;26.014;2022-08-01T05:26:24;99533.34;;;27.25;31.81
48424;BME280;34232;42.502;26.014;2022-08-01T05:28:49;99520.06;;;27.40;31.07
48424;BME280;34232;42.502;26.014;2022-08-01T05:31:14;99539.69;;;27.52;31.09
48424;BME280;34232;42.502;26.014;2022-08-01T05:33:39;99534.44;;;27.62;30.53
48424;BME280;34232;42.502;26.014;2022-08-01T05:36:05;99534.59;;;27.72;31.47
48424;BME280;34232;42.502;26.014;2022-08-01T05:38:30;99542.91;;;27.88;31.40
48424;BME280;34232;42.502;26.014;2022-08-01T05:40:55;99538.72;;;28.02;37.17
48424;BME280;34232;42.502;26.014;2022-08-01T05:43:21;99544.25;;;28.12;37.36
48424;BME280;34232;42.502;26.014;2022-08-01T05:45:46;99541.50;;;28.07;39.14
48424;BME280;34232;42.502;26.014;2022-08-01T05:48:12;99549.00;;;28.22;40.20
48424;BME280;34232;42.502;26.014;2022-08-01T05:50:37;99549.84;;;28.22;41.98
48424;BME280;34232;42.502;26.014;2022-08-01T05:53:02;99552.84;;;28.04;44.94
48424;BME280;34232;42.502;26.014;2022-08-01T05:55:28;99548.09;;;27.94;43.25
48424;BME280;34232;42.502;26.014;2022-08-01T05:57:53;99556.75;;;27.36;42.10
48424;BME280;34232;42.502;26.014;2022-08-01T06:00:18;99553.50;;;27.17;42.81
48424;BME280;34232;42.502;26.014;2022-08-01T06:02:44;99562.13;;;26.69;44.17
48424;BME280;34232;42.502;26.014;2022-08-01T06:05:09;99550.34;;;26.18;45.33
48424;BME280;34232;42.502;26.014;2022-08-01T06:07:35;99558.63;;;26.00;45.83
48424;BME280;34232;42.502;26.014;2022-08-01T06:10:00;99563.00;;;25.89;45.59
48424;BME280;34232;42.502;26.014;2022-08-01T06:12:25;99561.94;;;26.30;44.57
48424;BME280;34232;42.502;26.014;2022-08-01T06:14:51;99556.91;;;26.22;44.48
48424;BME280;34232;42.502;26.014;2022-08-01T06:17:16;99556.81;;;26.29;43.92
48424;BME280;34232;42.502;26.014;2022-08-01T06:19:41;99554.91;;;26.58;43.81
48424;BME280;34232;42.502;26.014;2022-08-01T06:22:07;99544.91;;;27.03;42.47
48424;BME280;34232;42.502;26.014;2022-08-01T06:24:32;99532.34;;;27.31;39.72
48424;BME280;34232;42.502;26.014;2022-08-01T06:26:57;99541.47;;;27.63;39.15
48424;BME280;34232;42.502;26.014;2022-08-01T06:29:22;99546.78;;;27.97;37.94
48424;BME280;34232;42.502;26.014;2022-08-01T06:31:48;99537.06;;;28.44;34.08
48424;BME280;34232;42.502;26.014;2022-08-01T06:34:13;99530.91;;;28.81;31.19
48424;BME280;34232;42.502;26.014;2022-08-01T06:36:40;99519.13;;;28.97;29.85
48424;BME280;34232;42.502;26.014;2022-08-01T06:39:05;99528.50;;;29.16;29.68
48424;BME280;34232;42.502;26.014;2022-08-01T06:41:30;99525.00;;;29.26;29.37
48424;BME280;34232;42.502;26.014;2022-08-01T06:43:56;99518.91;;;29.41;28.64
48424;BME280;34232;42.502;26.014;2022-08-01T06:46:21;99518.44;;;29.54;28.59
48424;BME280;34232;42.502;26.014;2022-08-01T06:48:46;99515.22;;;29.62;28.53
48424;BME280;34232;42.502;26.014;2022-08-01T06:51:12;99513.63;;;29.66;28.43
48424;BME280;34232;42.502;26.014;2022-08-01T06:53:40;99512.03;;;29.70;28.11
48424;BME280;34232;42.502;26.014;2022-08-01T06:56:06;99503.88;;;29.75;28.08
48424;BME280;34232;42.502;26.014;2022-08-01T06:58:31;99495.25;;;29.93;28.40
48424;BME280;34232;42.502;26.014;2022-08-01T07:00:57;99491.47;;;29.94;27.93
48424;BME280;34232;42.502;26.014;2022-08-01T07:03:22;99485.56;;;30.03;28.50
48424;BME280;34232;42.502;26.014;2022-08-01T07:05:48;99485.88;;;30.16;27.67
48424;BME280;34232;42.502;26.014;2022-08-01T07:08:13;99488.88;;;30.40;27.73
48424;BME280;34232;42.502;26.014;2022-08-01T07:10:38;99500.03;;;30.54;27.27
48424;BME280;34232;42.502;26.014;2022-08-01T07:13:03;99479.94;;;30.70;27.36
48424;BME280;34232;42.502;26.014;2022-08-01T07:15:29;99483.50;;;30.81;27.51
48424;BME280;34232;42.502;26.014;2022-08-01T07:17:54;99478.59;;;30.83;26.74
48424;BME280;34232;42.502;26.014;2022-08-01T07:20:19;99475.34;;;30.81;26.88
48424;BME280;34232;42.502;26.014;2022-08-01T07:22:45;99472.59;;;30.91;26.89
48424;BME280;34232;42.502;26.014;2022-08-01T07:25:10;99478.03;;;31.11;27.10
48424;BME280;34232;42.502;26.014;2022-08-01T07:27:36;99483.75;;;31.15;26.88
48424;BME280;34232;42.502;26.014;2022-08-01T07:30:01;99476.94;;;31.12;26.43
48424;BME280;34232;42.502;26.014;2022-08-01T07:32:27;99467.69;;;31.08;26.41
48424;BME280;34232;42.502;26.014;2022-08-01T07:34:54;99470.44;;;31.13;26.37
48424;BME280;34232;42.502;26.014;2022-08-01T07:37:19;99482.13;;;31.14;26.49
48424;BME280;34232;42.502;26.014;2022-08-01T07:39:44;99480.47;;;31.23;26.73
48424;BME280;34232;42.502;26.014;2022-08-01T07:42:10;99481.28;;;31.28;25.68
48424;BME280;34232;42.502;26.014;2022-08-01T07:44:35;99477.41;;;31.40;26.16
48424;BME280;34232;42.502;26.014;2022-08-01T07:47:00;99483.66;;;31.45;26.62
48424;BME280;34232;42.502;26.014;2022-08-01T07:49:26;99494.81;;;31.49;25.71
48424;BME280;34232;42.502;26.014;2022-08-01T07:51:51;99486.59;;;31.59;25.71
48424;BME280;34232;42.502;26.014;2022-08-01T07:54:16;99492.06;;;31.59;25.33
48424;BME280;34232;42.502;26.014;2022-08-01T07:56:41;99484.16;;;31.62;25.69
48424;BME280;34232;42.502;26.014;2022-08-01T07:59:07;99480.34;;;31.63;25.56
48424;BME280;34232;42.502;26.014;2022-08-01T08:01:32;99474.34;;;31.67;25.43
48424;BME280;34232;42.502;26.014;2022-08-01T08:03:57;99491.47;;;31.77;26.24
48424;BME280;34232;42.502;26.014;2022-08-01T08:06:23;99483.84;;;31.79;25.48
48424;BME280;34232;42.502;26.014;2022-08-01T08:08:48;99493.31;;;31.92;25.58
48424;BME280;34232;42.502;26.014;2022-08-01T08:11:13;99481.03;;;31.94;25.89
48424;BME280;34232;42.502;26.014;2022-08-01T08:13:38;99481.59;;;31.91;25.50
48424;BME280;34232;42.502;26.014;2022-08-01T08:16:04;99472.81;;;31.99;25.33
48424;BME280;34232;42.502;26.014;2022-08-01T08:18:29;99472.81;;;31.99;25.56
48424;BME280;34232;42.502;26.014;2022-08-01T08:20:54;99483.75;;;31.94;25.69
48424;BME280;34232;42.502;26.014;2022-08-01T08:23:19;99483.75;;;31.94;25.82
48424;BME280;34232;42.502;26.014;2022-08-01T08:26:03;99479.06;;;32.05;25.65
48424;BME280;34232;42.502;26.014;2022-08-01T08:28:29;99472.59;;;31.96;25.78
48424;BME280;34232;42.502;26.014;2022-08-01T08:30:54;99473.34;;;32.07;25.41
48424;BME280;34232;42.502;26.014;2022-08-01T08:33:20;99472.44;;;32.16;25.71
48424;BME280;34232;42.502;26.014;2022-08-01T08:35:45;99470.53;;;32.22;25.63
48424;BME280;34232;42.502;26.014;2022-08-01T08:38:10;99466.69;;;32.28;25.65
48424;BME280;34232;42.502;26.014;2022-08-01T08:40:36;99471.59;;;32.26;25.17
48424;BME280;34232;42.502;26.014;2022-08-01T08:43:03;99471.53;;;32.36;25.85
